Αρχική σελίδα
METAR-TAF:

METAR-TAF

Αεροδρόμια :

Old Crow, Γιουκόν, Καναδάς

γεωγραφικό πλάτος: 67-34N, γεωγραφικό μήκος: 139-49W, υψόμετρο: 251 μ

Παρών καιρός

Η αναφορά έγινε 4 ώρες και 50 λεπτά πριν, στις 02:00 UTC
Άνεμος 3 kt από Α
Θερμοκρασία -27°C
Υγρασία 69%
Πίεση 1020 hPa
Ορατότητα: 56.3 χλμ
Καθαρός ουρανός

METAR: CYOC 260200Z 10003KT 35SM SKC M27/M31 A3012 RMK LAST STFD OBS/NEXT 261400Z SLP243

Χρόνος: 22:50 (06:50 UTC)

Πρόγνωση Καιρού

Η αναφορά έγινε 12 ώρες και 12 λεπτά πριν, στις 18:38 UTC
Η πρόγνωση ισχύει από τις 25 στις 19 UTC έως τις 26 στις 02 UTC
Άνεμος 3 kt από μεταβλητές κατευθύνσεις
Ορατότητα: 10 χλμ
Λίγα νέφη σε ύψος 4000 πόδια

TAF: CYOC 251838Z 2519/2602 VRB03KT P6SM FEW040 RMK NXT FCST WILL BE ISSUED AT 261545Z

Μετεωρολογικές αναφορές και προγνώσεις για περισσότερα από 4000 αεροδρόμια (δελτία METAR και TAF).

Οι διαθέσιμοι σταθμοί απεικονίζονται στο χάρτη με κίτρινες και κόκκινες κουκκίδες.

Μετακινήστε το ποντίκι πάνω από τις κουκκίδες για να δείτε το όνομα του σταθμού.

Στη συνέχεια, κάντε κλικ για να δείτε τις μετεωρολογικές αναφορές και τις προγνώσεις καιρού.

Για να αλλάξετε το χάρτη: κάντε κλικ στα πράσινα κουμπιά με τον μαύρο σταυρό για να ζουμάρετε, στο πράσινο κουμπί με την παύλα για να αφαιρέσετε το ζουμ ή στα πράσινα βέλη για να αντιπαραβάλλετε χάρτες.


METAR-TAF: